sensor_id;sensor_type;location;lat;lon;timestamp;temperature;humidity
16229;DHT22;8222;51.462;12.630;2023-07-31T00:02:22;19.20;99.90
16229;DHT22;8222;51.462;12.630;2023-07-31T00:04:50;19.10;99.90
16229;DHT22;8222;51.462;12.630;2023-07-31T00:07:18;19.10;99.90
16229;DHT22;8222;51.462;12.630;2023-07-31T00:09:43;19.00;99.90
16229;DHT22;8222;51.462;12.630;2023-07-31T00:12:09;19.00;99.90
16229;DHT22;8222;51.462;12.630;2023-07-31T00:14:34;19.00;99.90
16229;DHT22;8222;51.462;12.630;2023-07-31T00:17:04;19.20;99.90
16229;DHT22;8222;51.462;12.630;2023-07-31T00:19:29;19.50;99.90
16229;DHT22;8222;51.462;12.630;2023-07-31T00:21:55;19.80;99.90
16229;DHT22;8222;51.462;12.630;2023-07-31T00:24:26;20.00;99.90
16229;DHT22;8222;51.462;12.630;2023-07-31T00:26:51;20.20;99.90
16229;DHT22;8222;51.462;12.630;2023-07-31T00:29:17;20.20;99.90
16229;DHT22;8222;51.462;12.630;2023-07-31T00:31:42;20.30;99.90
16229;DHT22;8222;51.462;12.630;2023-07-31T00:34:08;20.30;99.90
16229;DHT22;8222;51.462;12.630;2023-07-31T00:36:34;20.20;99.90
16229;DHT22;8222;51.462;12.630;2023-07-31T00:38:59;20.30;99.90
16229;DHT22;8222;51.462;12.630;2023-07-31T00:41:25;20.40;99.90
16229;DHT22;8222;51.462;12.630;2023-07-31T00:43:50;20.50;99.90
16229;DHT22;8222;51.462;12.630;2023-07-31T00:46:16;20.70;99.90
16229;DHT22;8222;51.462;12.630;2023-07-31T00:48:42;20.80;99.90
16229;DHT22;8222;51.462;12.630;2023-07-31T00:51:08;20.70;99.90
16229;DHT22;8222;51.462;12.630;2023-07-31T00:53:35;20.80;99.90
16229;DHT22;8222;51.462;12.630;2023-07-31T00:56:03;20.90;99.90
16229;DHT22;8222;51.462;12.630;2023-07-31T00:58:29;20.80;99.90
16229;DHT22;8222;51.462;12.630;2023-07-31T01:03:30;20.70;99.90
16229;DHT22;8222;51.462;12.630;2023-07-31T01:08:43;21.00;99.90
16229;DHT22;8222;51.462;12.630;2023-07-31T01:11:30;20.80;99.90
16229;DHT22;8222;51.462;12.630;2023-07-31T01:13:59;20.90;99.90
16229;DHT22;8222;51.462;12.630;2023-07-31T01:16:30;20.80;99.90
16229;DHT22;8222;51.462;12.630;2023-07-31T01:18:56;20.80;99.90
16229;DHT22;8222;51.462;12.630;2023-07-31T01:26:38;20.70;99.90
16229;DHT22;8222;51.462;12.630;2023-07-31T01:31:33;20.60;99.90
16229;DHT22;8222;51.462;12.630;2023-07-31T01:34:01;20.60;99.90
16229;DHT22;8222;51.462;12.630;2023-07-31T01:36:27;20.70;99.90
16229;DHT22;8222;51.462;12.630;2023-07-31T01:38:58;20.60;99.90
16229;DHT22;8222;51.462;12.630;2023-07-31T01:41:24;20.60;99.90
16229;DHT22;8222;51.462;12.630;2023-07-31T01:43:50;20.70;99.90
16229;DHT22;8222;51.462;12.630;2023-07-31T01:46:16;20.70;99.90
16229;DHT22;8222;51.462;12.630;2023-07-31T01:48:41;20.80;99.90
16229;DHT22;8222;51.462;12.630;2023-07-31T01:51:07;20.70;99.90
16229;DHT22;8222;51.462;12.630;2023-07-31T01:53:33;20.70;99.90
16229;DHT22;8222;51.462;12.630;2023-07-31T01:55:59;20.70;99.90
16229;DHT22;8222;51.462;12.630;2023-07-31T01:58:25;20.80;99.90
16229;DHT22;8222;51.462;12.630;2023-07-31T02:00:50;20.90;99.90
16229;DHT22;8222;51.462;12.630;2023-07-31T02:03:18;20.90;99.90
16229;DHT22;8222;51.462;12.630;2023-07-31T02:05:48;21.00;99.90
16229;DHT22;8222;51.462;12.630;2023-07-31T02:08:14;20.80;99.90
16229;DHT22;8222;51.462;12.630;2023-07-31T02:10:40;20.60;99.90
16229;DHT22;8222;51.462;12.630;2023-07-31T02:13:06;20.50;99.90
16229;DHT22;8222;51.462;12.630;2023-07-31T02:15:32;20.50;99.90
16229;DHT22;8222;51.462;12.630;2023-07-31T02:18:00;20.60;99.90
16229;DHT22;8222;51.462;12.630;2023-07-31T02:20:27;20.70;99.90
16229;DHT22;8222;51.462;12.630;2023-07-31T02:22:53;20.80;99.90
16229;DHT22;8222;51.462;12.630;2023-07-31T02:25:21;20.70;99.90
16229;DHT22;8222;51.462;12.630;2023-07-31T02:27:47;20.70;99.90
16229;DHT22;8222;51.462;12.630;2023-07-31T02:30:12;20.60;99.90
16229;DHT22;8222;51.462;12.630;2023-07-31T02:32:40;20.60;99.90
16229;DHT22;8222;51.462;12.630;2023-07-31T02:35:06;20.50;99.90
16229;DHT22;8222;51.462;12.630;2023-07-31T02:37:33;20.30;99.90
16229;DHT22;8222;51.462;12.630;2023-07-31T02:39:59;20.20;99.90
16229;DHT22;8222;51.462;12.630;2023-07-31T02:42:24;20.00;99.90
16229;DHT22;8222;51.462;12.630;2023-07-31T02:44:50;19.90;99.90
16229;DHT22;8222;51.462;12.630;2023-07-31T02:47:21;19.90;99.90
16229;DHT22;8222;51.462;12.630;2023-07-31T02:49:47;19.80;99.90
16229;DHT22;8222;51.462;12.630;2023-07-31T02:52:17;19.80;99.90
16229;DHT22;8222;51.462;12.630;2023-07-31T02:54:45;19.70;99.90
16229;DHT22;8222;51.462;12.630;2023-07-31T02:57:10;19.60;99.90
16229;DHT22;8222;51.462;12.630;2023-07-31T02:59:36;19.60;99.90
16229;DHT22;8222;51.462;12.630;2023-07-31T03:02:02;19.70;99.90
16229;DHT22;8222;51.462;12.630;2023-07-31T03:04:27;19.60;99.90
16229;DHT22;8222;51.462;12.630;2023-07-31T03:06:56;19.60;99.90
16229;DHT22;8222;51.462;12.630;2023-07-31T03:09:24;19.60;99.90
16229;DHT22;8222;51.462;12.630;2023-07-31T03:11:51;19.80;99.90
16229;DHT22;8222;51.462;12.630;2023-07-31T03:14:17;19.80;99.90
16229;DHT22;8222;51.462;12.630;2023-07-31T03:16:43;19.90;99.90
16229;DHT22;8222;51.462;12.630;2023-07-31T03:19:10;20.10;99.90
16229;DHT22;8222;51.462;12.630;2023-07-31T03:21:36;20.10;99.90
16229;DHT22;8222;51.462;12.630;2023-07-31T03:24:04;20.10;99.90
16229;DHT22;8222;51.462;12.630;2023-07-31T03:26:31;20.10;99.90
16229;DHT22;8222;51.462;12.630;2023-07-31T03:29:00;20.30;99.90
16229;DHT22;8222;51.462;12.630;2023-07-31T03:31:26;20.30;99.90
16229;DHT22;8222;51.462;12.630;2023-07-31T03:33:51;20.30;99.90
16229;DHT22;8222;51.462;12.630;2023-07-31T03:36:17;20.30;99.90
16229;DHT22;8222;51.462;12.630;2023-07-31T03:38:43;20.20;99.90
16229;DHT22;8222;51.462;12.630;2023-07-31T03:41:08;20.10;99.90
16229;DHT22;8222;51.462;12.630;2023-07-31T03:43:35;20.00;99.90
16229;DHT22;8222;51.462;12.630;2023-07-31T03:46:01;19.90;99.90
16229;DHT22;8222;51.462;12.630;2023-07-31T03:48:29;19.80;99.90
16229;DHT22;8222;51.462;12.630;2023-07-31T03:50:55;20.00;99.90
16229;DHT22;8222;51.462;12.630;2023-07-31T03:53:23;20.10;99.90
16229;DHT22;8222;51.462;12.630;2023-07-31T03:55:49;20.30;99.90
16229;DHT22;8222;51.462;12.630;2023-07-31T03:58:14;20.30;99.90
16229;DHT22;8222;51.462;12.630;2023-07-31T04:00:40;20.30;99.90
16229;DHT22;8222;51.462;12.630;2023-07-31T04:03:06;20.30;99.90
16229;DHT22;8222;51.462;12.630;2023-07-31T04:05:38;20.60;99.90
16229;DHT22;8222;51.462;12.630;2023-07-31T04:08:04;20.80;99.90
16229;DHT22;8222;51.462;12.630;2023-07-31T04:10:29;21.00;99.90
16229;DHT22;8222;51.462;12.630;2023-07-31T04:12:56;21.10;99.90
16229;DHT22;8222;51.462;12.630;2023-07-31T04:15:22;21.10;99.90
16229;DHT22;8222;51.462;12.630;2023-07-31T04:17:49;21.00;99.90
16229;DHT22;8222;51.462;12.630;2023-07-31T04:20:18;21.00;99.90
16229;DHT22;8222;51.462;12.630;2023-07-31T04:22:43;20.90;99.90
16229;DHT22;8222;51.462;12.630;2023-07-31T04:25:14;20.80;99.90
16229;DHT22;8222;51.462;12.630;2023-07-31T04:27:40;20.80;99.90
16229;DHT22;8222;51.462;12.630;2023-07-31T04:30:06;20.60;99.90
16229;DHT22;8222;51.462;12.630;2023-07-31T04:32:32;20.80;99.90
16229;DHT22;8222;51.462;12.630;2023-07-31T04:35:00;20.80;99.90
16229;DHT22;8222;51.462;12.630;2023-07-31T04:37:28;20.90;99.90
16229;DHT22;8222;51.462;12.630;2023-07-31T04:39:54;20.80;99.90
16229;DHT22;8222;51.462;12.630;2023-07-31T04:42:20;20.70;99.90
16229;DHT22;8222;51.462;12.630;2023-07-31T04:44:47;20.80;99.90
16229;DHT22;8222;51.462;12.630;2023-07-31T04:47:13;20.80;99.90
16229;DHT22;8222;51.462;12.630;2023-07-31T04:49:41;20.90;99.90
16229;DHT22;8222;51.462;12.630;2023-07-31T04:52:07;21.00;99.90
16229;DHT22;8222;51.462;12.630;2023-07-31T04:54:35;20.80;99.90
16229;DHT22;8222;51.462;12.630;2023-07-31T04:57:01;21.00;99.90
16229;DHT22;8222;51.462;12.630;2023-07-31T04:59:26;20.80;99.90
16229;DHT22;8222;51.462;12.630;2023-07-31T05:01:57;20.80;99.90
16229;DHT22;8222;51.462;12.630;2023-07-31T05:04:23;20.90;99.90
16229;DHT22;8222;51.462;12.630;2023-07-31T05:06:48;21.10;99.90
16229;DHT22;8222;51.462;12.630;2023-07-31T05:09:16;21.10;99.90
16229;DHT22;8222;51.462;12.630;2023-07-31T05:11:45;21.10;99.90
16229;DHT22;8222;51.462;12.630;2023-07-31T05:14:13;21.00;99.90
16229;DHT22;8222;51.462;12.630;2023-07-31T05:16:41;20.80;99.90
16229;DHT22;8222;51.462;12.630;2023-07-31T05:19:09;20.80;99.90
16229;DHT22;8222;51.462;12.630;2023-07-31T05:21:35;20.80;99.90
16229;DHT22;8222;51.462;12.630;2023-07-31T05:24:01;20.70;99.90
16229;DHT22;8222;51.462;12.630;2023-07-31T05:26:29;20.70;99.90
16229;DHT22;8222;51.462;12.630;2023-07-31T05:28:54;20.70;99.90
16229;DHT22;8222;51.462;12.630;2023-07-31T05:31:20;20.80;99.90
16229;DHT22;8222;51.462;12.630;2023-07-31T05:33:50;20.70;99.90
16229;DHT22;8222;51.462;12.630;2023-07-31T05:36:16;20.80;99.90
16229;DHT22;8222;51.462;12.630;2023-07-31T05:38:42;20.80;99.90
16229;DHT22;8222;51.462;12.630;2023-07-31T05:41:10;20.80;99.90
16229;DHT22;8222;51.462;12.630;2023-07-31T05:43:39;20.90;99.90
16229;DHT22;8222;51.462;12.630;2023-07-31T05:46:04;21.10;99.90
16229;DHT22;8222;51.462;12.630;2023-07-31T05:48:34;21.10;99.90
16229;DHT22;8222;51.462;12.630;2023-07-31T05:51:02;21.20;99.90
16229;DHT22;8222;51.462;12.630;2023-07-31T05:53:28;21.10;99.90
16229;DHT22;8222;51.462;12.630;2023-07-31T05:55:56;21.20;99.90
16229;DHT22;8222;51.462;12.630;2023-07-31T05:58:22;21.20;99.90
16229;DHT22;8222;51.462;12.630;2023-07-31T06:00:49;21.20;99.90
16229;DHT22;8222;51.462;12.630;2023-07-31T06:03:15;21.40;99.90
16229;DHT22;8222;51.462;12.630;2023-07-31T06:05:43;21.50;99.90
16229;DHT22;8222;51.462;12.630;2023-07-31T06:08:09;21.40;99.90
16229;DHT22;8222;51.462;12.630;2023-07-31T06:10:35;21.30;99.90
16229;DHT22;8222;51.462;12.630;2023-07-31T06:13:00;21.40;99.90
16229;DHT22;8222;51.462;12.630;2023-07-31T06:15:26;21.40;99.90
16229;DHT22;8222;51.462;12.630;2023-07-31T06:17:51;21.60;99.90
16229;DHT22;8222;51.462;12.630;2023-07-31T06:20:17;21.60;99.90
16229;DHT22;8222;51.462;12.630;2023-07-31T06:22:43;21.60;99.90
16229;DHT22;8222;51.462;12.630;2023-07-31T06:25:08;21.70;99.90
16229;DHT22;8222;51.462;12.630;2023-07-31T06:27:35;21.70;99.90
16229;DHT22;8222;51.462;12.630;2023-07-31T06:30:02;21.70;99.90
16229;DHT22;8222;51.462;12.630;2023-07-31T06:32:28;21.60;99.90
16229;DHT22;8222;51.462;12.630;2023-07-31T06:34:54;21.80;99.90
16229;DHT22;8222;51.462;12.630;2023-07-31T06:37:19;21.90;99.90
16229;DHT22;8222;51.462;12.630;2023-07-31T06:39:47;22.10;99.90
16229;DHT22;8222;51.462;12.630;2023-07-31T06:42:13;22.20;99.90
16229;DHT22;8222;51.462;12.630;2023-07-31T06:44:41;22.20;99.90
16229;DHT22;8222;51.462;12.630;2023-07-31T06:47:07;22.20;99.90
16229;DHT22;8222;51.462;12.630;2023-07-31T06:49:34;22.00;99.90
16229;DHT22;8222;51.462;12.630;2023-07-31T06:52:05;21.90;99.90
16229;DHT22;8222;51.462;12.630;2023-07-31T06:54:30;21.60;99.90
16229;DHT22;8222;51.462;12.630;2023-07-31T06:56:56;21.70;99.90
16229;DHT22;8222;51.462;12.630;2023-07-31T06:59:22;21.80;99.90
16229;DHT22;8222;51.462;12.630;2023-07-31T07:01:48;21.80;99.90
16229;DHT22;8222;51.462;12.630;2023-07-31T07:04:13;22.10;99.90
16229;DHT22;8222;51.462;12.630;2023-07-31T07:06:39;22.10;99.90
16229;DHT22;8222;51.462;12.630;2023-07-31T07:09:05;21.90;99.90
16229;DHT22;8222;51.462;12.630;2023-07-31T07:11:31;21.70;99.90
16229;DHT22;8222;51.462;12.630;2023-07-31T07:13:57;21.60;99.90
16229;DHT22;8222;51.462;12.630;2023-07-31T07:16:22;21.40;99.90
16229;DHT22;8222;51.462;12.630;2023-07-31T07:18:48;21.40;99.90
16229;DHT22;8222;51.462;12.630;2023-07-31T07:21:16;21.50;99.90
16229;DHT22;8222;51.462;12.630;2023-07-31T07:23:43;21.60;99.90
16229;DHT22;8222;51.462;12.630;2023-07-31T07:26:09;21.70;99.90
16229;DHT22;8222;51.462;12.630;2023-07-31T07:29:37;21.70;99.90
16229;DHT22;8222;51.462;12.630;2023-07-31T07:31:59;21.60;99.90
16229;DHT22;8222;51.462;12.630;2023-07-31T07:34:28;21.50;99.90
16229;DHT22;8222;51.462;12.630;2023-07-31T07:36:56;21.40;99.90
16229;DHT22;8222;51.462;12.630;2023-07-31T07:39:24;21.50;99.90
16229;DHT22;8222;51.462;12.630;2023-07-31T07:41:50;21.60;99.90
16229;DHT22;8222;51.462;12.630;2023-07-31T07:44:16;21.30;99.90
16229;DHT22;8222;51.462;12.630;2023-07-31T07:46:43;21.20;99.90
16229;DHT22;8222;51.462;12.630;2023-07-31T07:49:11;20.80;99.90
16229;DHT22;8222;51.462;12.630;2023-07-31T07:51:37;20.80;99.90
16229;DHT22;8222;51.462;12.630;2023-07-31T07:54:02;20.60;99.90
16229;DHT22;8222;51.462;12.630;2023-07-31T07:56:28;20.50;99.90
16229;DHT22;8222;51.462;12.630;2023-07-31T07:58:54;20.60;99.90
16229;DHT22;8222;51.462;12.630;2023-07-31T08:01:20;20.60;99.90
16229;DHT22;8222;51.462;12.630;2023-07-31T08:03:47;20.60;99.90
16229;DHT22;8222;51.462;12.630;2023-07-31T08:06:13;20.50;99.90
16229;DHT22;8222;51.462;12.630;2023-07-31T08:08:39;20.40;99.90
16229;DHT22;8222;51.462;12.630;2023-07-31T08:11:05;20.30;99.90
16229;DHT22;8222;51.462;12.630;2023-07-31T08:13:30;20.30;99.90
16229;DHT22;8222;51.462;12.630;2023-07-31T08:15:56;20.30;99.90
16229;DHT22;8222;51.462;12.630;2023-07-31T08:18:25;20.30;99.90
16229;DHT22;8222;51.462;12.630;2023-07-31T08:20:53;20.30;99.90
16229;DHT22;8222;51.462;12.630;2023-07-31T08:23:19;20.30;99.90
16229;DHT22;8222;51.462;12.630;2023-07-31T08:25:45;20.30;99.90
16229;DHT22;8222;51.462;12.630;2023-07-31T08:28:10;20.30;99.90
16229;DHT22;8222;51.462;12.630;2023-07-31T08:30:41;20.30;99.90
16229;DHT22;8222;51.462;12.630;2023-07-31T08:33:07;20.30;99.90
16229;DHT22;8222;51.462;12.630;2023-07-31T08:35:33;20.20;99.90
16229;DHT22;8222;51.462;12.630;2023-07-31T08:38:01;20.20;99.90
16229;DHT22;8222;51.462;12.630;2023-07-31T08:40:28;20.10;99.90
16229;DHT22;8222;51.462;12.630;2023-07-31T08:42:57;20.20;99.90
16229;DHT22;8222;51.462;12.630;2023-07-31T08:45:27;20.40;99.90
16229;DHT22;8222;51.462;12.630;2023-07-31T08:47:55;20.50;99.90
16229;DHT22;8222;51.462;12.630;2023-07-31T08:50:22;20.50;99.90
16229;DHT22;8222;51.462;12.630;2023-07-31T08:52:49;20.50;99.90
16229;DHT22;8222;51.462;12.630;2023-07-31T08:55:15;20.50;99.90
16229;DHT22;8222;51.462;12.630;2023-07-31T08:57:52;20.40;99.90
16229;DHT22;8222;51.462;12.630;2023-07-31T09:00:22;20.40;99.90
16229;DHT22;8222;51.462;12.630;2023-07-31T09:03:02;20.50;99.90
16229;DHT22;8222;51.462;12.630;2023-07-31T09:05:30;20.60;99.90
16229;DHT22;8222;51.462;12.630;2023-07-31T09:07:56;20.60;99.90
16229;DHT22;8222;51.462;12.630;2023-07-31T09:10:24;20.70;99.90
16229;DHT22;8222;51.462;12.630;2023-07-31T09:12:53;20.60;99.90
16229;DHT22;8222;51.462;12.630;2023-07-31T09:15:20;20.50;99.90
16229;DHT22;8222;51.462;12.630;2023-07-31T09:17:50;20.50;99.90
16229;DHT22;8222;51.462;12.630;2023-07-31T09:20:28;20.60;99.90
16229;DHT22;8222;51.462;12.630;2023-07-31T09:22:55;20.60;99.90
16229;DHT22;8222;51.462;12.630;2023-07-31T09:25:25;20.70;99.90
16229;DHT22;8222;51.462;12.630;2023-07-31T09:27:57;20.60;99.90
16229;DHT22;8222;51.462;12.630;2023-07-31T09:30:23;20.60;99.90
16229;DHT22;8222;51.462;12.630;2023-07-31T09:32:50;20.80;99.90
16229;DHT22;8222;51.462;12.630;2023-07-31T09:35:20;20.80;99.90
16229;DHT22;8222;51.462;12.630;2023-07-31T09:37:53;20.90;99.90
16229;DHT22;8222;51.462;12.630;2023-07-31T09:40:31;20.80;99.90
16229;DHT22;8222;51.462;12.630;2023-07-31T09:43:20;20.70;99.90
16229;DHT22;8222;51.462;12.630;2023-07-31T09:45:46;20.80;99.90
16229;DHT22;8222;51.462;12.630;2023-07-31T09:48:16;21.00;99.90
16229;DHT22;8222;51.462;12.630;2023-07-31T09:50:46;21.00;99.90
16229;DHT22;8222;51.462;12.630;2023-07-31T09:53:12;21.10;99.90
16229;DHT22;8222;51.462;12.630;2023-07-31T09:55:39;21.10;99.90
16229;DHT22;8222;51.462;12.630;2023-07-31T09:58:11;21.40;99.90
16229;DHT22;8222;51.462;12.630;2023-07-31T10:00:38;21.40;99.90
16229;DHT22;8222;51.462;12.630;2023-07-31T10:03:06;21.40;99.90
16229;DHT22;8222;51.462;12.630;2023-07-31T10:05:42;21.50;99.90
16229;DHT22;8222;51.462;12.630;2023-07-31T10:08:09;21.40;99.90
16229;DHT22;8222;51.462;12.630;2023-07-31T10:10:41;21.30;99.90
16229;DHT22;8222;51.462;12.630;2023-07-31T10:13:08;21.30;99.90
16229;DHT22;8222;51.462;12.630;2023-07-31T10:15:36;21.30;99.90
16229;DHT22;8222;51.462;12.630;2023-07-31T10:18:02;21.40;99.90
16229;DHT22;8222;51.462;12.630;2023-07-31T10:20:33;21.40;99.90
16229;DHT22;8222;51.462;12.630;2023-07-31T10:22:59;21.40;99.90
16229;DHT22;8222;51.462;12.630;2023-07-31T10:25:27;21.30;99.90
16229;DHT22;8222;51.462;12.630;2023-07-31T10:27:54;21.30;99.90
16229;DHT22;8222;51.462;12.630;2023-07-31T10:30:26;21.50;99.90
16229;DHT22;8222;51.462;12.630;2023-07-31T10:32:53;21.50;99.90
16229;DHT22;8222;51.462;12.630;2023-07-31T10:35:20;21.60;99.90
16229;DHT22;8222;51.462;12.630;2023-07-31T10:37:47;21.80;99.90
16229;DHT22;8222;51.462;12.630;2023-07-31T10:40:19;21.90;99.90
16229;DHT22;8222;51.462;12.630;2023-07-31T10:42:53;22.00;99.90
16229;DHT22;8222;51.462;12.630;2023-07-31T10:45:37;22.00;99.90
16229;DHT22;8222;51.462;12.630;2023-07-31T10:48:12;22.10;99.90
16229;DHT22;8222;51.462;12.630;2023-07-31T10:50:46;22.20;99.90
16229;DHT22;8222;51.462;12.630;2023-07-31T10:53:23;22.20;99.90
16229;DHT22;8222;51.462;12.630;2023-07-31T10:55:52;22.20;99.90
16229;DHT22;8222;51.462;12.630;2023-07-31T10:58:23;22.40;99.90
16229;DHT22;8222;51.462;12.630;2023-07-31T11:00:55;22.50;99.90
16229;DHT22;8222;51.462;12.630;2023-07-31T11:03:40;22.80;99.90
16229;DHT22;8222;51.462;12.630;2023-07-31T11:06:09;22.60;99.90
16229;DHT22;8222;51.462;12.630;2023-07-31T11:08:41;22.80;99.90
16229;DHT22;8222;51.462;12.630;2023-07-31T11:11:09;23.20;99.90
16229;DHT22;8222;51.462;12.630;2023-07-31T11:13:51;23.40;99.90
16229;DHT22;8222;51.462;12.630;2023-07-31T11:16:20;23.50;99.90
16229;DHT22;8222;51.462;12.630;2023-07-31T11:18:47;23.60;99.90
16229;DHT22;8222;51.462;12.630;2023-07-31T11:21:15;23.80;99.90
16229;DHT22;8222;51.462;12.630;2023-07-31T11:23:48;23.90;99.90
16229;DHT22;8222;51.462;12.630;2023-07-31T11:26:17;24.20;99.90
16229;DHT22;8222;51.462;12.630;2023-07-31T11:29:10;24.30;99.90
16229;DHT22;8222;51.462;12.630;2023-07-31T11:31:45;24.70;99.90
16229;DHT22;8222;51.462;12.630;2023-07-31T11:34:14;24.60;99.90
16229;DHT22;8222;51.462;12.630;2023-07-31T11:36:40;24.50;99.90
16229;DHT22;8222;51.462;12.630;2023-07-31T11:39:08;24.60;99.90
16229;DHT22;8222;51.462;12.630;2023-07-31T11:41:33;24.40;99.90
16229;DHT22;8222;51.462;12.630;2023-07-31T11:44:00;24.70;99.90
16229;DHT22;8222;51.462;12.630;2023-07-31T11:46:26;24.80;99.90
16229;DHT22;8222;51.462;12.630;2023-07-31T11:48:52;24.80;99.90
16229;DHT22;8222;51.462;12.630;2023-07-31T11:51:24;24.90;99.90
16229;DHT22;8222;51.462;12.630;2023-07-31T11:53:58;24.80;99.90
16229;DHT22;8222;51.462;12.630;2023-07-31T11:56:29;24.80;99.90
16229;DHT22;8222;51.462;12.630;2023-07-31T11:58:59;24.70;99.90
16229;DHT22;8222;51.462;12.630;2023-07-31T12:01:28;24.90;99.90
16229;DHT22;8222;51.462;12.630;2023-07-31T12:03:56;25.10;99.90
16229;DHT22;8222;51.462;12.630;2023-07-31T12:06:37;25.00;99.90
16229;DHT22;8222;51.462;12.630;2023-07-31T12:09:08;24.80;99.90
16229;DHT22;8222;51.462;12.630;2023-07-31T12:11:45;24.70;99.90
16229;DHT22;8222;51.462;12.630;2023-07-31T12:14:22;24.50;99.90
16229;DHT22;8222;51.462;12.630;2023-07-31T12:16:58;24.60;99.90
16229;DHT22;8222;51.462;12.630;2023-07-31T12:19:25;24.80;99.90
16229;DHT22;8222;51.462;12.630;2023-07-31T12:21:56;24.80;99.90
16229;DHT22;8222;51.462;12.630;2023-07-31T12:24:22;24.80;99.90
16229;DHT22;8222;51.462;12.630;2023-07-31T12:26:48;24.90;99.90
16229;DHT22;8222;51.462;12.630;2023-07-31T12:29:14;25.20;99.90
16229;DHT22;8222;51.462;12.630;2023-07-31T12:31:45;25.30;99.90
16229;DHT22;8222;51.462;12.630;2023-07-31T12:34:18;25.60;99.90
16229;DHT22;8222;51.462;12.630;2023-07-31T12:36:46;25.60;99.90
16229;DHT22;8222;51.462;12.630;2023-07-31T12:39:17;25.80;99.90
16229;DHT22;8222;51.462;12.630;2023-07-31T12:41:42;26.10;99.90
16229;DHT22;8222;51.462;12.630;2023-07-31T12:44:08;26.10;99.90
16229;DHT22;8222;51.462;12.630;2023-07-31T12:46:35;26.10;99.90
16229;DHT22;8222;51.462;12.630;2023-07-31T12:49:03;26.50;99.90
16229;DHT22;8222;51.462;12.630;2023-07-31T12:51:29;26.50;99.90
16229;DHT22;8222;51.462;12.630;2023-07-31T12:53:54;26.50;99.90
16229;DHT22;8222;51.462;12.630;2023-07-31T12:56:20;26.60;99.90
16229;DHT22;8222;51.462;12.630;2023-07-31T12:58:48;26.60;99.90
16229;DHT22;8222;51.462;12.630;2023-07-31T13:01:14;26.70;99.90
16229;DHT22;8222;51.462;12.630;2023-07-31T13:03:40;26.90;99.90
16229;DHT22;8222;51.462;12.630;2023-07-31T13:06:05;27.10;99.90
16229;DHT22;8222;51.462;12.630;2023-07-31T13:08:31;27.10;99.90
16229;DHT22;8222;51.462;12.630;2023-07-31T13:11:04;27.50;99.90
16229;DHT22;8222;51.462;12.630;2023-07-31T13:13:32;27.70;99.90
16229;DHT22;8222;51.462;12.630;2023-07-31T13:16:00;27.50;99.90
16229;DHT22;8222;51.462;12.630;2023-07-31T13:18:29;27.30;99.90
16229;DHT22;8222;51.462;12.630;2023-07-31T13:20:55;27.00;99.90
16229;DHT22;8222;51.462;12.630;2023-07-31T13:23:20;27.00;99.90
16229;DHT22;8222;51.462;12.630;2023-07-31T13:25:49;27.40;99.90
16229;DHT22;8222;51.462;12.630;2023-07-31T13:28:17;27.40;99.90
16229;DHT22;8222;51.462;12.630;2023-07-31T13:30:45;27.40;99.90
16229;DHT22;8222;51.462;12.630;2023-07-31T13:33:11;27.00;99.90
16229;DHT22;8222;51.462;12.630;2023-07-31T13:35:39;26.70;99.90
16229;DHT22;8222;51.462;12.630;2023-07-31T13:38:07;26.80;99.90
16229;DHT22;8222;51.462;12.630;2023-07-31T13:40:32;26.60;99.90
16229;DHT22;8222;51.462;12.630;2023-07-31T13:43:00;26.60;99.90
16229;DHT22;8222;51.462;12.630;2023-07-31T13:45:26;26.40;99.90
16229;DHT22;8222;51.462;12.630;2023-07-31T13:47:54;26.10;99.90
16229;DHT22;8222;51.462;12.630;2023-07-31T13:50:20;25.80;99.90
16229;DHT22;8222;51.462;12.630;2023-07-31T13:52:48;25.80;99.90
16229;DHT22;8222;51.462;12.630;2023-07-31T13:55:13;25.90;99.90
16229;DHT22;8222;51.462;12.630;2023-07-31T13:57:39;25.80;99.90
16229;DHT22;8222;51.462;12.630;2023-07-31T14:00:05;25.60;99.90
16229;DHT22;8222;51.462;12.630;2023-07-31T14:02:31;25.40;99.90
16229;DHT22;8222;51.462;12.630;2023-07-31T14:04:57;25.20;99.90
16229;DHT22;8222;51.462;12.630;2023-07-31T14:07:23;25.10;99.90
16229;DHT22;8222;51.462;12.630;2023-07-31T14:09:51;24.90;99.90
16229;DHT22;8222;51.462;12.630;2023-07-31T14:12:16;24.70;99.90
16229;DHT22;8222;51.462;12.630;2023-07-31T14:14:42;24.60;99.90
16229;DHT22;8222;51.462;12.630;2023-07-31T14:17:07;24.60;99.90
16229;DHT22;8222;51.462;12.630;2023-07-31T14:19:33;24.50;99.90
16229;DHT22;8222;51.462;12.630;2023-07-31T14:21:59;24.60;99.90
16229;DHT22;8222;51.462;12.630;2023-07-31T14:24:25;24.60;99.90
16229;DHT22;8222;51.462;12.630;2023-07-31T14:26:51;24.90;99.90
16229;DHT22;8222;51.462;12.630;2023-07-31T14:29:16;24.90;99.90
16229;DHT22;8222;51.462;12.630;2023-07-31T14:31:45;24.80;99.90
16229;DHT22;8222;51.462;12.630;2023-07-31T14:34:10;24.60;99.90
16229;DHT22;8222;51.462;12.630;2023-07-31T14:36:36;24.40;99.90
16229;DHT22;8222;51.462;12.630;2023-07-31T14:39:04;24.40;99.90
16229;DHT22;8222;51.462;12.630;2023-07-31T14:41:30;24.40;99.90
16229;DHT22;8222;51.462;12.630;2023-07-31T14:43:58;24.40;99.90
16229;DHT22;8222;51.462;12.630;2023-07-31T14:46:23;24.20;99.90
16229;DHT22;8222;51.462;12.630;2023-07-31T14:48:49;24.10;99.90
16229;DHT22;8222;51.462;12.630;2023-07-31T14:51:17;24.00;99.90
16229;DHT22;8222;51.462;12.630;2023-07-31T14:53:45;24.00;99.90
16229;DHT22;8222;51.462;12.630;2023-07-31T14:56:12;24.00;99.90
16229;DHT22;8222;51.462;12.630;2023-07-31T14:58:38;23.90;99.90
16229;DHT22;8222;51.462;12.630;2023-07-31T15:01:05;23.80;99.90
16229;DHT22;8222;51.462;12.630;2023-07-31T15:03:31;23.70;99.90
16229;DHT22;8222;51.462;12.630;2023-07-31T15:05:59;23.60;99.90
16229;DHT22;8222;51.462;12.630;2023-07-31T15:08:24;23.50;99.90
16229;DHT22;8222;51.462;12.630;2023-07-31T15:10:50;23.50;99.90
16229;DHT22;8222;51.462;12.630;2023-07-31T15:13:22;23.60;99.90
16229;DHT22;8222;51.462;12.630;2023-07-31T15:15:48;23.50;99.90
16229;DHT22;8222;51.462;12.630;2023-07-31T15:18:18;23.50;99.90
16229;DHT22;8222;51.462;12.630;2023-07-31T15:20:44;23.50;99.90
16229;DHT22;8222;51.462;12.630;2023-07-31T15:23:10;23.30;99.90
16229;DHT22;8222;51.462;12.630;2023-07-31T15:25:36;23.40;99.90
16229;DHT22;8222;51.462;12.630;2023-07-31T15:28:01;23.30;99.90
16229;DHT22;8222;51.462;12.630;2023-07-31T15:30:27;23.40;99.90
16229;DHT22;8222;51.462;12.630;2023-07-31T15:32:53;23.30;99.90
16229;DHT22;8222;51.462;12.630;2023-07-31T15:35:21;23.30;99.90
16229;DHT22;8222;51.462;12.630;2023-07-31T15:37:46;23.20;99.90
16229;DHT22;8222;51.462;12.630;2023-07-31T15:40:14;23.20;99.90
16229;DHT22;8222;51.462;12.630;2023-07-31T15:42:40;23.20;99.90
16229;DHT22;8222;51.462;12.630;2023-07-31T15:45:08;23.10;99.90
16229;DHT22;8222;51.462;12.630;2023-07-31T15:47:34;23.10;99.90